sensor_id;sensor_type;location;lat;lon;timestamp;pressure;altitude;pressure_sealevel;temperature;humidity
85473;BME280;75874;41.386;22.136;2024-03-02T00:00:37;95229.31;;;10.10;88.60
85473;BME280;75874;41.386;22.136;2024-03-02T00:03:04;95236.78;;;10.08;88.41
85473;BME280;75874;41.386;22.136;2024-03-02T00:05:29;95237.56;;;10.09;89.53
85473;BME280;75874;41.386;22.136;2024-03-02T00:07:57;95233.09;;;10.19;88.32
85473;BME280;75874;41.386;22.136;2024-03-02T00:10:41;95236.03;;;10.23;89.61
85473;BME280;75874;41.386;22.136;2024-03-02T00:13:07;95228.84;;;10.23;89.09
85473;BME280;75874;41.386;22.136;2024-03-02T00:15:55;95230.44;;;10.24;89.52
85473;BME280;75874;41.386;22.136;2024-03-02T00:18:25;95229.94;;;10.27;88.40
85473;BME280;75874;41.386;22.136;2024-03-02T00:20:55;95240.06;;;10.25;88.49
85473;BME280;75874;41.386;22.136;2024-03-02T00:23:27;95249.34;;;10.23;88.16
85473;BME280;75874;41.386;22.136;2024-03-02T00:25:55;95240.63;;;10.27;89.36
85473;BME280;75874;41.386;22.136;2024-03-02T00:28:32;95241.97;;;10.35;88.94
85473;BME280;75874;41.386;22.136;2024-03-02T00:31:06;95234.25;;;10.33;87.17
85473;BME280;75874;41.386;22.136;2024-03-02T00:33:41;95243.88;;;10.44;88.32
85473;BME280;75874;41.386;22.136;2024-03-02T00:36:08;95244.16;;;10.48;87.04
85473;BME280;75874;41.386;22.136;2024-03-02T00:38:34;95238.31;;;10.46;87.04
85473;BME280;75874;41.386;22.136;2024-03-02T00:41:06;95236.19;;;10.53;88.06
85473;BME280;75874;41.386;22.136;2024-03-02T00:46:54;95231.16;;;10.61;88.01
85473;BME280;75874;41.386;22.136;2024-03-02T00:49:24;95232.72;;;10.57;86.74
85473;BME280;75874;41.386;22.136;2024-03-02T00:51:51;95229.25;;;10.52;86.95
85473;BME280;75874;41.386;22.136;2024-03-02T00:54:22;95221.53;;;10.60;87.21
85473;BME280;75874;41.386;22.136;2024-03-02T00:56:50;95215.94;;;10.62;87.41
85473;BME280;75874;41.386;22.136;2024-03-02T00:59:16;95214.59;;;10.54;86.28
85473;BME280;75874;41.386;22.136;2024-03-02T01:01:42;95212.16;;;10.48;87.01
85473;BME280;75874;41.386;22.136;2024-03-02T01:04:09;95186.81;;;10.40;86.81
85473;BME280;75874;41.386;22.136;2024-03-02T01:06:37;95211.41;;;10.57;87.08
85473;BME280;75874;41.386;22.136;2024-03-02T01:09:03;95207.38;;;10.50;87.75
85473;BME280;75874;41.386;22.136;2024-03-02T01:11:29;95203.41;;;10.52;87.58
85473;BME280;75874;41.386;22.136;2024-03-02T01:13:55;95206.97;;;10.21;86.53
85473;BME280;75874;41.386;22.136;2024-03-02T01:16:21;95201.97;;;10.30;87.32
85473;BME280;75874;41.386;22.136;2024-03-02T01:18:46;95196.13;;;10.33;86.06
85473;BME280;75874;41.386;22.136;2024-03-02T01:21:12;95194.03;;;10.40;86.70
85473;BME280;75874;41.386;22.136;2024-03-02T01:23:38;95192.16;;;10.40;87.61
85473;BME280;75874;41.386;22.136;2024-03-02T01:26:04;95188.97;;;10.43;87.44
85473;BME280;75874;41.386;22.136;2024-03-02T01:28:29;95191.13;;;10.51;86.75
85473;BME280;75874;41.386;22.136;2024-03-02T01:30:55;95185.50;;;10.38;86.11
85473;BME280;75874;41.386;22.136;2024-03-02T01:33:20;95189.47;;;10.40;86.06
85473;BME280;75874;41.386;22.136;2024-03-02T01:35:46;95189.97;;;10.27;86.62
85473;BME280;75874;41.386;22.136;2024-03-02T01:38:12;95179.41;;;9.96;87.07
85473;BME280;75874;41.386;22.136;2024-03-02T01:40:38;95192.94;;;9.89;87.64
85473;BME280;75874;41.386;22.136;2024-03-02T01:46:17;95182.31;;;9.94;88.18
85473;BME280;75874;41.386;22.136;2024-03-02T01:48:42;95179.38;;;9.91;86.79
85473;BME280;75874;41.386;22.136;2024-03-02T01:51:08;95186.50;;;9.85;88.49
85473;BME280;75874;41.386;22.136;2024-03-02T01:53:34;95190.72;;;9.76;88.04
85473;BME280;75874;41.386;22.136;2024-03-02T01:56:00;95193.56;;;9.65;88.22
85473;BME280;75874;41.386;22.136;2024-03-02T01:58:27;95193.31;;;9.66;87.61
85473;BME280;75874;41.386;22.136;2024-03-02T02:00:53;95196.78;;;9.67;87.49
85473;BME280;75874;41.386;22.136;2024-03-02T02:03:18;95196.56;;;9.73;87.37
85473;BME280;75874;41.386;22.136;2024-03-02T02:05:44;95194.59;;;9.59;87.56
85473;BME280;75874;41.386;22.136;2024-03-02T02:08:11;95187.88;;;9.51;88.48
85473;BME280;75874;41.386;22.136;2024-03-02T02:10:36;95196.47;;;9.63;88.43
85473;BME280;75874;41.386;22.136;2024-03-02T02:13:02;95197.13;;;9.75;87.43
85473;BME280;75874;41.386;22.136;2024-03-02T02:15:29;95197.16;;;9.80;88.31
85473;BME280;75874;41.386;22.136;2024-03-02T02:17:57;95207.00;;;9.80;88.11
85473;BME280;75874;41.386;22.136;2024-03-02T02:20:24;95201.13;;;9.78;86.98
85473;BME280;75874;41.386;22.136;2024-03-02T02:25:24;95214.22;;;9.84;86.89
85473;BME280;75874;41.386;22.136;2024-03-02T02:31:13;95209.41;;;9.81;88.37
85473;BME280;75874;41.386;22.136;2024-03-02T02:33:42;95209.97;;;9.83;87.61
85473;BME280;75874;41.386;22.136;2024-03-02T02:36:07;95210.50;;;9.90;89.04
85473;BME280;75874;41.386;22.136;2024-03-02T02:38:39;95209.19;;;9.88;88.16
85473;BME280;75874;41.386;22.136;2024-03-02T02:41:06;95211.91;;;10.03;89.09
85473;BME280;75874;41.386;22.136;2024-03-02T02:43:31;95211.63;;;9.99;88.46
85473;BME280;75874;41.386;22.136;2024-03-02T02:45:57;95210.88;;;10.04;86.83
85473;BME280;75874;41.386;22.136;2024-03-02T02:48:22;95207.66;;;10.02;87.58
85473;BME280;75874;41.386;22.136;2024-03-02T02:50:48;95203.06;;;9.92;87.11
85473;BME280;75874;41.386;22.136;2024-03-02T02:53:14;95213.31;;;10.10;87.30
85473;BME280;75874;41.386;22.136;2024-03-02T02:55:40;95209.34;;;10.13;88.04
85473;BME280;75874;41.386;22.136;2024-03-02T02:58:12;95208.22;;;10.04;86.55
85473;BME280;75874;41.386;22.136;2024-03-02T03:00:38;95206.94;;;10.11;87.78
85473;BME280;75874;41.386;22.136;2024-03-02T03:03:04;95204.84;;;10.18;87.82
85473;BME280;75874;41.386;22.136;2024-03-02T03:05:30;95167.66;;;9.92;86.21
85473;BME280;75874;41.386;22.136;2024-03-02T03:07:55;95205.09;;;10.17;86.67
85473;BME280;75874;41.386;22.136;2024-03-02T03:10:21;95201.66;;;10.16;86.01
85473;BME280;75874;41.386;22.136;2024-03-02T03:12:49;95205.91;;;10.17;86.71
85473;BME280;75874;41.386;22.136;2024-03-02T03:15:15;95209.66;;;10.16;87.49
85473;BME280;75874;41.386;22.136;2024-03-02T03:17:41;95207.97;;;10.05;87.92
85473;BME280;75874;41.386;22.136;2024-03-02T03:20:08;95200.03;;;9.74;88.47
85473;BME280;75874;41.386;22.136;2024-03-02T03:22:38;95205.41;;;9.84;88.66
85473;BME280;75874;41.386;22.136;2024-03-02T03:25:04;95200.28;;;9.72;87.74
85473;BME280;75874;41.386;22.136;2024-03-02T03:27:30;95205.47;;;9.94;87.19
85473;BME280;75874;41.386;22.136;2024-03-02T03:29:56;95212.09;;;9.86;86.49
85473;BME280;75874;41.386;22.136;2024-03-02T03:32:22;95207.19;;;9.68;87.05
85473;BME280;75874;41.386;22.136;2024-03-02T03:34:48;95205.88;;;9.76;87.33
85473;BME280;75874;41.386;22.136;2024-03-02T03:37:36;95204.50;;;9.68;88.09
85473;BME280;75874;41.386;22.136;2024-03-02T03:40:02;95209.78;;;9.63;87.78
85473;BME280;75874;41.386;22.136;2024-03-02T03:42:28;95206.56;;;9.56;88.10
85473;BME280;75874;41.386;22.136;2024-03-02T03:44:54;95205.66;;;9.40;87.79
85473;BME280;75874;41.386;22.136;2024-03-02T03:47:19;95207.97;;;9.32;88.30
85473;BME280;75874;41.386;22.136;2024-03-02T03:49:46;95206.41;;;9.36;89.31
85473;BME280;75874;41.386;22.136;2024-03-02T03:52:11;95207.75;;;9.38;89.19
85473;BME280;75874;41.386;22.136;2024-03-02T03:54:37;95213.06;;;9.38;88.22
85473;BME280;75874;41.386;22.136;2024-03-02T03:57:04;95212.31;;;9.43;87.27
85473;BME280;75874;41.386;22.136;2024-03-02T03:59:30;95206.16;;;9.37;87.65
85473;BME280;75874;41.386;22.136;2024-03-02T04:01:59;95212.00;;;9.39;88.18
85473;BME280;75874;41.386;22.136;2024-03-02T04:04:24;95204.59;;;9.41;88.32
85473;BME280;75874;41.386;22.136;2024-03-02T04:06:50;95209.38;;;9.44;87.39
85473;BME280;75874;41.386;22.136;2024-03-02T04:09:16;95216.09;;;9.52;87.02
85473;BME280;75874;41.386;22.136;2024-03-02T04:11:41;95214.59;;;9.61;86.35
85473;BME280;75874;41.386;22.136;2024-03-02T04:14:07;95222.94;;;9.75;87.20
85473;BME280;75874;41.386;22.136;2024-03-02T04:16:32;95218.97;;;9.82;86.06
85473;BME280;75874;41.386;22.136;2024-03-02T04:18:58;95213.09;;;9.75;86.42
85473;BME280;75874;41.386;22.136;2024-03-02T04:21:24;95211.22;;;9.76;85.54
85473;BME280;75874;41.386;22.136;2024-03-02T04:23:49;95227.00;;;9.87;87.17
85473;BME280;75874;41.386;22.136;2024-03-02T04:29:28;95220.69;;;9.98;85.97
85473;BME280;75874;41.386;22.136;2024-03-02T04:31:54;95219.91;;;10.03;87.41
85473;BME280;75874;41.386;22.136;2024-03-02T04:34:20;95220.31;;;10.16;86.26
85473;BME280;75874;41.386;22.136;2024-03-02T04:36:45;95222.88;;;10.06;85.58
85473;BME280;75874;41.386;22.136;2024-03-02T04:42:20;95218.88;;;10.04;84.15
85473;BME280;75874;41.386;22.136;2024-03-02T04:44:46;95202.22;;;9.87;84.92
85473;BME280;75874;41.386;22.136;2024-03-02T04:47:12;95223.94;;;10.05;85.39
85473;BME280;75874;41.386;22.136;2024-03-02T04:52:59;95226.84;;;10.04;86.61
85473;BME280;75874;41.386;22.136;2024-03-02T04:55:25;95223.13;;;10.05;85.14
85473;BME280;75874;41.386;22.136;2024-03-02T04:58:10;95223.88;;;9.95;85.89
85473;BME280;75874;41.386;22.136;2024-03-02T05:00:36;95228.84;;;9.87;85.99
85473;BME280;75874;41.386;22.136;2024-03-02T05:03:02;95235.50;;;9.84;87.17
85473;BME280;75874;41.386;22.136;2024-03-02T05:05:28;95236.28;;;9.80;86.98
85473;BME280;75874;41.386;22.136;2024-03-02T05:07:54;95239.97;;;9.79;87.83
85473;BME280;75874;41.386;22.136;2024-03-02T05:10:20;95237.84;;;9.76;88.19
85473;BME280;75874;41.386;22.136;2024-03-02T05:12:45;95240.50;;;9.76;86.66
85473;BME280;75874;41.386;22.136;2024-03-02T05:15:15;95243.16;;;9.76;87.80
85473;BME280;75874;41.386;22.136;2024-03-02T05:17:42;95246.94;;;9.80;88.74
85473;BME280;75874;41.386;22.136;2024-03-02T05:20:11;95250.16;;;9.82;88.92
85473;BME280;75874;41.386;22.136;2024-03-02T05:22:37;95248.81;;;9.84;88.30
85473;BME280;75874;41.386;22.136;2024-03-02T05:25:04;95254.97;;;9.90;88.39
85473;BME280;75874;41.386;22.136;2024-03-02T05:27:30;95251.28;;;9.91;88.05
85473;BME280;75874;41.386;22.136;2024-03-02T05:29:59;95255.81;;;9.95;87.36
85473;BME280;75874;41.386;22.136;2024-03-02T05:32:25;95259.81;;;9.93;88.32
85473;BME280;75874;41.386;22.136;2024-03-02T05:34:51;95246.13;;;9.79;87.60
85473;BME280;75874;41.386;22.136;2024-03-02T05:37:39;95255.28;;;9.93;88.06
85473;BME280;75874;41.386;22.136;2024-03-02T05:40:05;95257.41;;;9.96;88.37
85473;BME280;75874;41.386;22.136;2024-03-02T05:42:31;95258.28;;;10.02;86.56
85473;BME280;75874;41.386;22.136;2024-03-02T05:44:57;95255.66;;;10.07;87.19
85473;BME280;75874;41.386;22.136;2024-03-02T05:47:22;95262.00;;;10.06;87.49
85473;BME280;75874;41.386;22.136;2024-03-02T05:49:48;95260.41;;;10.05;85.80
85473;BME280;75874;41.386;22.136;2024-03-02T05:52:13;95268.66;;;10.03;85.98
85473;BME280;75874;41.386;22.136;2024-03-02T05:54:39;95274.59;;;10.10;86.67
85473;BME280;75874;41.386;22.136;2024-03-02T05:57:05;95270.91;;;10.16;85.64
85473;BME280;75874;41.386;22.136;2024-03-02T05:59:52;95249.34;;;9.81;86.07
85473;BME280;75874;41.386;22.136;2024-03-02T06:02:17;95278.81;;;10.06;85.68
85473;BME280;75874;41.386;22.136;2024-03-02T06:04:43;95278.78;;;10.01;85.98
85473;BME280;75874;41.386;22.136;2024-03-02T06:07:08;95279.06;;;10.05;84.41
85473;BME280;75874;41.386;22.136;2024-03-02T06:09:34;95282.84;;;10.09;84.52
85473;BME280;75874;41.386;22.136;2024-03-02T06:12:02;95273.34;;;10.18;85.36
85473;BME280;75874;41.386;22.136;2024-03-02T06:14:28;95285.31;;;10.20;84.59
85473;BME280;75874;41.386;22.136;2024-03-02T06:16:53;95281.94;;;10.35;84.49
85473;BME280;75874;41.386;22.136;2024-03-02T06:19:19;95278.53;;;10.44;84.60
85473;BME280;75874;41.386;22.136;2024-03-02T06:21:45;95282.25;;;10.43;85.29
85473;BME280;75874;41.386;22.136;2024-03-02T06:24:10;95277.94;;;10.37;85.84
85473;BME280;75874;41.386;22.136;2024-03-02T06:26:36;95282.50;;;10.42;84.90
85473;BME280;75874;41.386;22.136;2024-03-02T06:29:01;95276.31;;;10.31;84.80
85473;BME280;75874;41.386;22.136;2024-03-02T06:31:27;95263.03;;;10.36;85.49
85473;BME280;75874;41.386;22.136;2024-03-02T06:33:53;95292.72;;;10.55;84.81
85473;BME280;75874;41.386;22.136;2024-03-02T06:36:19;95295.41;;;10.60;82.61
85473;BME280;75874;41.386;22.136;2024-03-02T06:38:44;95291.94;;;10.59;82.72
85473;BME280;75874;41.386;22.136;2024-03-02T06:41:10;95301.91;;;10.79;82.98
85473;BME280;75874;41.386;22.136;2024-03-02T06:43:36;95306.47;;;10.93;82.29
85473;BME280;75874;41.386;22.136;2024-03-02T06:46:01;95306.53;;;11.09;81.06
85473;BME280;75874;41.386;22.136;2024-03-02T06:48:28;95306.59;;;11.29;79.64
85473;BME280;75874;41.386;22.136;2024-03-02T06:50:55;95301.53;;;11.32;80.50
85473;BME280;75874;41.386;22.136;2024-03-02T06:53:21;95306.09;;;11.47;78.03
85473;BME280;75874;41.386;22.136;2024-03-02T06:55:47;95308.03;;;11.76;77.74
85473;BME280;75874;41.386;22.136;2024-03-02T06:58:14;95305.38;;;11.91;76.37
85473;BME280;75874;41.386;22.136;2024-03-02T07:00:42;95304.03;;;12.09;77.69
85473;BME280;75874;41.386;22.136;2024-03-02T07:03:09;95312.84;;;12.14;75.89
85473;BME280;75874;41.386;22.136;2024-03-02T07:06:06;95314.72;;;12.04;75.50
85473;BME280;75874;41.386;22.136;2024-03-02T07:08:32;95311.00;;;12.00;76.21
85473;BME280;75874;41.386;22.136;2024-03-02T07:10:58;95310.72;;;11.96;77.90
85473;BME280;75874;41.386;22.136;2024-03-02T07:13:24;95308.56;;;12.03;76.63
85473;BME280;75874;41.386;22.136;2024-03-02T07:15:50;95310.72;;;11.96;76.10
85473;BME280;75874;41.386;22.136;2024-03-02T07:18:27;95308.84;;;12.07;80.89
85473;BME280;75874;41.386;22.136;2024-03-02T07:20:53;95321.66;;;12.20;79.99
85473;BME280;75874;41.386;22.136;2024-03-02T07:23:19;95312.78;;;12.44;78.79
85473;BME280;75874;41.386;22.136;2024-03-02T07:25:46;95320.84;;;12.24;76.41
85473;BME280;75874;41.386;22.136;2024-03-02T07:28:11;95324.78;;;12.67;77.70
85473;BME280;75874;41.386;22.136;2024-03-02T07:30:37;95315.13;;;12.71;76.67
85473;BME280;75874;41.386;22.136;2024-03-02T07:33:04;95333.66;;;12.58;71.30
85473;BME280;75874;41.386;22.136;2024-03-02T07:35:30;95335.72;;;12.76;75.76
85473;BME280;75874;41.386;22.136;2024-03-02T07:37:57;95339.75;;;12.83;75.39
85473;BME280;75874;41.386;22.136;2024-03-02T07:40:24;95338.41;;;12.81;71.94
85473;BME280;75874;41.386;22.136;2024-03-02T07:42:49;95335.81;;;13.29;72.05
85473;BME280;75874;41.386;22.136;2024-03-02T07:45:15;95335.47;;;13.51;67.60
85473;BME280;75874;41.386;22.136;2024-03-02T07:47:41;95331.84;;;13.70;66.83
85473;BME280;75874;41.386;22.136;2024-03-02T07:50:07;95338.38;;;13.98;67.63
85473;BME280;75874;41.386;22.136;2024-03-02T07:52:33;95344.59;;;14.27;67.45
85473;BME280;75874;41.386;22.136;2024-03-02T07:54:58;95341.91;;;14.27;72.76
85473;BME280;75874;41.386;22.136;2024-03-02T07:57:25;95349.44;;;14.20;73.25
85473;BME280;75874;41.386;22.136;2024-03-02T07:59:51;95352.56;;;13.98;73.73
85473;BME280;75874;41.386;22.136;2024-03-02T08:02:16;95356.63;;;13.96;74.75
85473;BME280;75874;41.386;22.136;2024-03-02T08:04:43;95366.25;;;13.97;74.71
85473;BME280;75874;41.386;22.136;2024-03-02T08:07:09;95366.22;;;14.02;74.91
85473;BME280;75874;41.386;22.136;2024-03-02T08:09:34;95358.13;;;14.12;74.58
85473;BME280;75874;41.386;22.136;2024-03-02T08:12:00;95369.84;;;14.21;75.15
85473;BME280;75874;41.386;22.136;2024-03-02T08:14:26;95371.50;;;14.51;74.70
85473;BME280;75874;41.386;22.136;2024-03-02T08:16:51;95368.44;;;14.62;75.06
85473;BME280;75874;41.386;22.136;2024-03-02T08:19:17;95367.97;;;14.55;74.66
85473;BME280;75874;41.386;22.136;2024-03-02T08:21:43;95369.16;;;14.39;73.82
85473;BME280;75874;41.386;22.136;2024-03-02T08:24:09;95372.94;;;14.38;73.70
85473;BME280;75874;41.386;22.136;2024-03-02T08:26:35;95368.72;;;14.32;73.66
85473;BME280;75874;41.386;22.136;2024-03-02T08:32:22;95372.25;;;14.23;74.65
85473;BME280;75874;41.386;22.136;2024-03-02T08:34:47;95366.50;;;14.68;72.82
85473;BME280;75874;41.386;22.136;2024-03-02T08:37:13;95370.59;;;15.41;69.07
85473;BME280;75874;41.386;22.136;2024-03-02T08:39:39;95369.03;;;15.77;67.76
85473;BME280;75874;41.386;22.136;2024-03-02T08:42:04;95371.06;;;16.04;66.66
85473;BME280;75874;41.386;22.136;2024-03-02T08:44:30;95366.03;;;16.16;66.54
85473;BME280;75874;41.386;22.136;2024-03-02T08:46:56;95363.38;;;16.29;66.65
85473;BME280;75874;41.386;22.136;2024-03-02T08:49:22;95371.28;;;16.26;66.35
85473;BME280;75874;41.386;22.136;2024-03-02T08:51:47;95366.13;;;15.92;67.10
85473;BME280;75874;41.386;22.136;2024-03-02T08:54:22;95369.38;;;15.71;67.42
85473;BME280;75874;41.386;22.136;2024-03-02T08:56:52;95368.88;;;15.69;69.13
85473;BME280;75874;41.386;22.136;2024-03-02T08:59:17;95360.88;;;16.19;70.48
85473;BME280;75874;41.386;22.136;2024-03-02T09:01:43;95368.06;;;16.74;68.36
85473;BME280;75874;41.386;22.136;2024-03-02T09:04:09;95364.91;;;17.27;64.91
85473;BME280;75874;41.386;22.136;2024-03-02T09:06:35;95365.84;;;17.49;65.35
85473;BME280;75874;41.386;22.136;2024-03-02T09:09:00;95368.41;;;17.68;64.22
85473;BME280;75874;41.386;22.136;2024-03-02T09:11:26;95367.88;;;17.93;63.56
85473;BME280;75874;41.386;22.136;2024-03-02T09:13:52;95369.25;;;18.04;63.79
85473;BME280;75874;41.386;22.136;2024-03-02T09:16:18;95368.41;;;18.17;62.27
85473;BME280;75874;41.386;22.136;2024-03-02T09:18:45;95370.66;;;18.01;61.65
85473;BME280;75874;41.386;22.136;2024-03-02T09:21:10;95366.13;;;17.75;63.53
85473;BME280;75874;41.386;22.136;2024-03-02T09:23:36;95372.22;;;17.26;64.45
85473;BME280;75874;41.386;22.136;2024-03-02T09:26:02;95362.13;;;17.18;63.20
85473;BME280;75874;41.386;22.136;2024-03-02T09:28:28;95364.56;;;17.47;61.50
85473;BME280;75874;41.386;22.136;2024-03-02T09:30:54;95359.63;;;17.76;58.31
85473;BME280;75874;41.386;22.136;2024-03-02T09:33:20;95367.53;;;17.59;62.70
85473;BME280;75874;41.386;22.136;2024-03-02T09:35:45;95363.63;;;17.65;61.11
85473;BME280;75874;41.386;22.136;2024-03-02T09:38:11;95359.47;;;18.08;59.99
85473;BME280;75874;41.386;22.136;2024-03-02T09:40:37;95361.03;;;18.44;58.71
85473;BME280;75874;41.386;22.136;2024-03-02T09:43:37;95363.78;;;18.75;59.69
85473;BME280;75874;41.386;22.136;2024-03-02T09:46:03;95368.13;;;19.46;58.43
85473;BME280;75874;41.386;22.136;2024-03-02T09:48:29;95360.25;;;19.66;56.40
85473;BME280;75874;41.386;22.136;2024-03-02T09:50:55;95368.72;;;19.90;57.89
85473;BME280;75874;41.386;22.136;2024-03-02T09:53:22;95353.84;;;19.62;56.77
85473;BME280;75874;41.386;22.136;2024-03-02T09:55:48;95357.06;;;19.81;55.77
85473;BME280;75874;41.386;22.136;2024-03-02T09:58:14;95352.91;;;19.67;57.40
85473;BME280;75874;41.386;22.136;2024-03-02T10:00:40;95361.78;;;19.59;57.86
85473;BME280;75874;41.386;22.136;2024-03-02T10:03:11;95355.28;;;19.68;55.63
85473;BME280;75874;41.386;22.136;2024-03-02T10:05:37;95360.25;;;19.66;58.18
85473;BME280;75874;41.386;22.136;2024-03-02T10:08:03;95338.53;;;20.31;56.01
85473;BME280;75874;41.386;22.136;2024-03-02T10:10:36;95354.75;;;20.57;55.23
85473;BME280;75874;41.386;22.136;2024-03-02T10:13:13;95348.53;;;20.48;54.21
85473;BME280;75874;41.386;22.136;2024-03-02T10:15:40;95356.25;;;21.55;50.96
85473;BME280;75874;41.386;22.136;2024-03-02T10:18:13;95352.66;;;20.79;51.55
85473;BME280;75874;41.386;22.136;2024-03-02T10:20:40;95357.47;;;20.57;53.00
85473;BME280;75874;41.386;22.136;2024-03-02T10:23:14;95350.41;;;20.98;51.53
85473;BME280;75874;41.386;22.136;2024-03-02T10:25:40;95354.78;;;21.58;50.54
85473;BME280;75874;41.386;22.136;2024-03-02T10:28:06;95348.47;;;21.74;49.22
85473;BME280;75874;41.386;22.136;2024-03-02T10:30:33;95356.88;;;24.61;43.74
85473;BME280;75874;41.386;22.136;2024-03-02T10:33:03;95355.28;;;26.97;37.50
85473;BME280;75874;41.386;22.136;2024-03-02T10:35:31;95347.41;;;28.57;33.15
85473;BME280;75874;41.386;22.136;2024-03-02T10:38:05;95344.47;;;29.79;31.28
85473;BME280;75874;41.386;22.136;2024-03-02T10:40:31;95349.09;;;29.31;31.81
85473;BME280;75874;41.386;22.136;2024-03-02T10:42:59;95351.22;;;31.18;29.31
85473;BME280;75874;41.386;22.136;2024-03-02T10:45:27;95346.97;;;31.31;27.29
85473;BME280;75874;41.386;22.136;2024-03-02T10:47:54;95350.97;;;32.25;25.93
85473;BME280;75874;41.386;22.136;2024-03-02T10:50:28;95352.28;;;33.93;25.36
85473;BME280;75874;41.386;22.136;2024-03-02T10:52:54;95346.13;;;33.64;24.99
85473;BME280;75874;41.386;22.136;2024-03-02T10:55:20;95338.38;;;34.44;23.73
85473;BME280;75874;41.386;22.136;2024-03-02T10:57:51;95343.03;;;33.55;23.88
85473;BME280;75874;41.386;22.136;2024-03-02T11:00:19;95335.06;;;34.97;23.00
85473;BME280;75874;41.386;22.136;2024-03-02T11:02:58;95335.44;;;35.82;23.48
85473;BME280;75874;41.386;22.136;2024-03-02T11:05:34;95316.06;;;33.70;23.83
85473;BME280;75874;41.386;22.136;2024-03-02T11:08:08;95330.41;;;32.61;25.53
85473;BME280;75874;41.386;22.136;2024-03-02T11:10:38;95331.06;;;35.28;22.10
85473;BME280;75874;41.386;22.136;2024-03-02T11:13:12;95329.94;;;36.94;20.79
85473;BME280;75874;41.386;22.136;2024-03-02T11:15:40;95328.66;;;38.05;19.44
85473;BME280;75874;41.386;22.136;2024-03-02T11:18:09;95313.72;;;35.77;20.15
85473;BME280;75874;41.386;22.136;2024-03-02T11:20:38;95316.00;;;33.12;23.39
85473;BME280;75874;41.386;22.136;2024-03-02T11:23:05;95315.50;;;35.07;20.97
85473;BME280;75874;41.386;22.136;2024-03-02T11:25:32;95316.25;;;36.18;20.63
85473;BME280;75874;41.386;22.136;2024-03-02T11:28:03;95322.78;;;37.52;18.66
85473;BME280;75874;41.386;22.136;2024-03-02T11:32:58;95313.19;;;39.10;17.48
85473;BME280;75874;41.386;22.136;2024-03-02T11:35:27;95311.50;;;40.63;16.51
85473;BME280;75874;41.386;22.136;2024-03-02T11:37:55;95314.97;;;39.95;17.46
85473;BME280;75874;41.386;22.136;2024-03-02T11:40:27;95315.31;;;40.56;16.12
85473;BME280;75874;41.386;22.136;2024-03-02T11:42:53;95325.50;;;41.18;14.67
85473;BME280;75874;41.386;22.136;2024-03-02T11:45:23;95328.25;;;41.92;15.95
85473;BME280;75874;41.386;22.136;2024-03-02T11:47:58;95330.03;;;42.65;14.72
85473;BME280;75874;41.386;22.136;2024-03-02T11:50:35;95318.59;;;43.41;14.23
85473;BME280;75874;41.386;22.136;2024-03-02T11:53:05;95318.25;;;43.75;13.94
85473;BME280;75874;41.386;22.136;2024-03-02T11:55:35;95320.66;;;44.57;14.23
85473;BME280;75874;41.386;22.136;2024-03-02T11:58:04;95325.50;;;45.03;12.76
85473;BME280;75874;41.386;22.136;2024-03-02T12:00:30;95317.06;;;45.18;13.81
85473;BME280;75874;41.386;22.136;2024-03-02T12:03:12;95318.25;;;44.41;13.86
85473;BME280;75874;41.386;22.136;2024-03-02T12:05:38;95307.78;;;44.65;14.44
85473;BME280;75874;41.386;22.136;2024-03-02T12:08:05;95303.00;;;44.23;13.43
85473;BME280;75874;41.386;22.136;2024-03-02T12:10:33;95290.03;;;36.61;18.74
85473;BME280;75874;41.386;22.136;2024-03-02T12:13:00;95284.03;;;34.54;20.19
85473;BME280;75874;41.386;22.136;2024-03-02T12:15:31;95288.97;;;38.46;17.93
85473;BME280;75874;41.386;22.136;2024-03-02T12:17:58;95299.19;;;42.17;15.91
85473;BME280;75874;41.386;22.136;2024-03-02T12:20:25;95295.72;;;39.59;17.37
85473;BME280;75874;41.386;22.136;2024-03-02T12:22:52;95278.81;;;41.86;15.42
85473;BME280;75874;41.386;22.136;2024-03-02T12:25:22;95261.69;;;34.30;20.49
85473;BME280;75874;41.386;22.136;2024-03-02T12:27:53;95287.69;;;36.99;18.61
85473;BME280;75874;41.386;22.136;2024-03-02T12:30:19;95289.81;;;40.97;15.31
85473;BME280;75874;41.386;22.136;2024-03-02T12:32:46;95291.06;;;39.28;15.83
85473;BME280;75874;41.386;22.136;2024-03-02T12:35:12;95293.28;;;41.84;15.40
85473;BME280;75874;41.386;22.136;2024-03-02T12:37:47;95262.94;;;33.82;20.69
85473;BME280;75874;41.386;22.136;2024-03-02T12:40:14;95288.22;;;40.87;15.86
85473;BME280;75874;41.386;22.136;2024-03-02T12:42:43;95301.28;;;43.52;14.18
85473;BME280;75874;41.386;22.136;2024-03-02T12:45:09;95300.75;;;45.51;12.55
85473;BME280;75874;41.386;22.136;2024-03-02T12:47:35;95265.03;;;36.81;17.44
85473;BME280;75874;41.386;22.136;2024-03-02T12:50:03;95294.59;;;41.31;14.99
85473;BME280;75874;41.386;22.136;2024-03-02T12:52:29;95293.19;;;40.37;15.98
85473;BME280;75874;41.386;22.136;2024-03-02T12:55:09;95255.66;;;36.52;18.81
85473;BME280;75874;41.386;22.136;2024-03-02T12:57:35;95250.44;;;30.24;25.57
85473;BME280;75874;41.386;22.136;2024-03-02T13:00:03;95248.34;;;27.84;28.14
85473;BME280;75874;41.386;22.136;2024-03-02T13:02:36;95260.13;;;28.10;28.84
85473;BME280;75874;41.386;22.136;2024-03-02T13:05:03;95250.09;;;26.79;31.40
85473;BME280;75874;41.386;22.136;2024-03-02T13:07:29;95248.56;;;28.57;27.40
85473;BME280;75874;41.386;22.136;2024-03-02T13:09:55;95243.06;;;25.86;30.61
85473;BME280;75874;41.386;22.136;2024-03-02T13:12:22;95246.94;;;24.61;34.11
85473;BME280;75874;41.386;22.136;2024-03-02T13:14:53;95282.91;;;32.90;23.32
85473;BME280;75874;41.386;22.136;2024-03-02T13:17:19;95295.31;;;37.34;17.87
85473;BME280;75874;41.386;22.136;2024-03-02T13:19:56;95308.59;;;41.09;14.33
85473;BME280;75874;41.386;22.136;2024-03-02T13:22:22;95307.28;;;42.06;14.41